Time;durP1;ratioP1;P1;durP2;ratioP2;P2;SDS_P1;SDS_P2;PMS_P1;PMS_P2;Temp;Humidity;BMP_temperature;BMP_pressure;BME280_temperature;BME280_humidity;BME280_pressure;Samples;Min_cycle;Max_cycle;Signal;HPM_P1;HPM_P2
2021/12/12 00:02:34;;;;;;;24.50;8.00;;;4.00;99.90;;;4.46;100.00;101113.94;5052437;28;20033;-77
2021/12/12 00:05:08;;;;;;;22.90;7.78;;;4.00;99.90;;;4.53;100.00;101108.78;5051826;28;20110;-76
2021/12/12 00:07:35;;;;;;;15.55;6.63;;;4.00;99.90;;;4.48;100.00;101108.09;5050504;28;20078;-76
2021/12/12 00:10:16;;;;;;;15.02;6.72;;;4.00;99.90;;;4.48;100.00;101108.91;5050079;28;20435;-76
2021/12/12 00:12:53;;;;;;;23.25;7.70;;;4.00;99.90;;;4.43;100.00;101113.72;5051577;28;20205;-77
2021/12/12 00:15:22;;;;;;;20.67;7.78;;;3.90;99.90;;;4.42;100.00;101109.31;5050508;28;20048;-77
2021/12/12 00:17:49;;;;;;;15.07;6.45;;;3.90;99.90;;;4.43;100.00;101106.22;5051609;28;20032;-76
2021/12/12 00:20:21;;;;;;;17.77;7.43;;;3.90;99.90;;;4.43;100.00;101111.75;5051842;28;20029;-75
2021/12/12 00:22:49;;;;;;;11.35;6.80;;;3.90;99.90;;;4.42;100.00;101114.84;5067366;28;20430;-77
2021/12/12 00:25:17;;;;;;;13.63;6.88;;;3.90;99.90;;;4.42;100.00;101106.53;5070577;28;20033;-75
2021/12/12 00:27:44;;;;;;;16.45;7.68;;;3.90;99.90;;;4.40;100.00;101111.56;5071892;28;20108;-78
2021/12/12 00:30:13;;;;;;;18.10;7.07;;;3.90;99.90;;;4.44;100.00;101115.34;5070262;28;20086;-76
2021/12/12 00:32:40;;;;;;;15.25;7.20;;;4.00;99.90;;;4.47;100.00;101109.19;5071485;28;20028;-77
2021/12/12 00:35:14;;;;;;;15.50;6.13;;;3.90;99.90;;;4.45;100.00;101103.16;5071535;28;20047;-77
2021/12/12 00:37:59;;;;;;;13.38;5.80;;;3.90;99.90;;;4.45;100.00;101100.41;5071226;28;20021;-76
2021/12/12 00:40:39;;;;;;;18.58;6.35;;;4.00;99.90;;;4.40;100.00;101090.25;5069789;28;20119;-76
2021/12/12 00:43:20;;;;;;;14.98;6.32;;;4.00;99.90;;;4.44;100.00;101102.34;5069967;28;20067;-77
2021/12/12 00:45:46;;;;;;;15.23;6.57;;;3.90;99.90;;;4.41;100.00;101102.13;5070075;28;20052;-77
2021/12/12 00:48:12;;;;;;;18.98;6.70;;;4.00;99.90;;;4.38;100.00;101098.03;5071555;28;20082;-77
2021/12/12 00:50:42;;;;;;;11.40;5.65;;;4.00;99.90;;;4.36;100.00;101085.66;5069906;28;20025;-76
2021/12/12 00:53:12;;;;;;;12.30;5.15;;;4.00;99.90;;;4.34;100.00;101085.94;5071239;28;20104;-76
2021/12/12 00:55:45;;;;;;;17.13;5.90;;;4.00;99.90;;;4.50;100.00;101090.03;5071238;28;20029;-78
2021/12/12 00:58:17;;;;;;;13.13;5.18;;;4.00;99.90;;;4.45;100.00;101086.56;5070341;28;20039;-77
2021/12/12 01:01:13;;;;;;;11.93;5.30;;;4.00;99.90;;;4.43;100.00;101086.06;5071794;28;20029;-75
2021/12/12 01:04:05;;;;;;;;;;;3.90;99.90;;;4.33;100.00;101077.97;5076835;28;20405;-76
2021/12/12 01:06:33;;;;;;;9.25;4.70;;;3.90;99.90;;;4.33;100.00;101080.72;5075517;28;19915;-76
2021/12/12 01:09:16;;;;;;;13.95;4.53;;;3.90;99.90;;;4.35;100.00;101090.34;5074372;28;20102;-78
2021/12/12 01:11:50;;;;;;;14.20;4.95;;;4.00;99.90;;;4.42;100.00;101081.66;5073856;28;20029;-77
2021/12/12 01:14:33;;;;;;;17.13;5.10;;;4.00;99.90;;;4.41;100.00;101080.81;5075746;28;20426;-76
2021/12/12 01:17:27;;;;;;;10.80;4.43;;;4.00;99.90;;;4.49;100.00;101080.13;5074672;28;20131;-77
2021/12/12 01:20:31;;;;;;;8.55;4.20;;;4.00;99.90;;;4.38;100.00;101075.91;5075231;28;20024;-77
2021/12/12 01:23:37;;;;;;;8.82;4.10;;;4.00;99.90;;;4.45;100.00;101070.81;5057817;28;20025;-77
2021/12/12 01:26:08;;;;;;;11.45;5.28;;;4.10;99.90;;;4.48;100.00;101078.47;5048601;28;20047;-77
2021/12/12 01:28:43;;;;;;;7.75;4.30;;;4.10;99.90;;;4.45;100.00;101076.34;5054652;28;20503;-78
2021/12/12 01:31:24;;;;;;;14.90;4.30;;;4.10;99.90;;;4.42;100.00;101087.19;5055312;28;20063;-78
2021/12/12 01:34:10;;;;;;;12.48;3.85;;;4.10;99.90;;;4.44;100.00;101077.44;5053855;28;20534;-77
2021/12/12 01:37:06;;;;;;;14.30;4.80;;;4.10;99.90;;;4.57;100.00;101084.09;5053345;28;20033;-78
2021/12/12 01:39:45;;;;;;;10.10;4.28;;;4.10;99.90;;;4.47;100.00;101079.59;5053067;28;20075;-77
2021/12/12 01:42:39;;;;;;;9.88;4.13;;;4.10;99.90;;;4.51;100.00;101079.81;5054413;28;20063;-77
2021/12/12 01:45:38;;;;;;;9.50;4.40;;;4.00;99.90;;;4.53;100.00;101094.97;5054805;28;20039;-75
2021/12/12 01:48:24;;;;;;;11.32;3.55;;;4.10;99.90;;;4.53;100.00;101083.91;5054237;28;20083;-77
2021/12/12 01:51:02;;;;;;;13.82;4.15;;;4.10;99.90;;;4.54;100.00;101090.25;5054654;28;20041;-77
2021/12/12 01:53:38;;;;;;;16.90;3.92;;;4.10;99.90;;;4.56;100.00;101080.53;5056256;28;20554;-76
2021/12/12 01:56:18;;;;;;;11.68;4.60;;;4.10;99.90;;;4.53;100.00;101080.31;5056537;28;20029;-77
2021/12/12 01:58:58;;;;;;;9.70;3.90;;;4.10;99.90;;;4.50;100.00;101069.84;5055344;28;20025;-76
2021/12/12 02:02:21;;;;;;;8.02;3.40;;;4.10;99.90;;;4.54;100.00;101071.72;5055168;28;20029;-77
2021/12/12 02:04:57;;;;;;;13.40;4.57;;;4.10;99.90;;;4.55;100.00;101059.53;5054835;28;20108;-77
2021/12/12 02:07:33;;;;;;;10.13;3.50;;;4.10;99.90;;;4.52;100.00;101065.69;5054436;28;20036;-75
2021/12/12 02:10:16;;;;;;;6.80;3.08;;;4.10;99.90;;;4.52;100.00;101071.22;5054242;28;20069;-78
2021/12/12 02:12:42;;;;;;;10.73;3.00;;;4.10;99.90;;;4.60;100.00;101061.34;5055575;28;20032;-77
2021/12/12 02:15:12;;;;;;;12.23;3.58;;;4.20;99.90;;;4.60;100.00;101064.94;5065573;28;20029;-76
2021/12/12 02:17:44;;;;;;;12.07;3.90;;;4.20;99.90;;;4.62;100.00;101070.19;5068288;28;20048;-76
2021/12/12 02:20:43;;;;;;;13.07;3.45;;;4.20;99.90;;;4.58;100.00;101060.84;5065349;28;20037;-76
2021/12/12 02:37:03;;;;;;;10.50;3.20;;;4.20;99.90;;;4.70;100.00;101056.44;5075709;28;20119;-76
2021/12/12 02:39:35;;;;;;;9.52;3.25;;;4.20;99.90;;;4.69;100.00;101046.50;5072541;28;20025;-77
2021/12/12 02:42:10;;;;;;;8.52;3.17;;;4.30;99.90;;;4.88;100.00;101051.09;5073787;28;20349;-77
2021/12/12 02:44:40;;;;;;;6.13;3.25;;;4.30;99.90;;;4.84;100.00;101050.91;5074052;28;20176;-77
2021/12/12 02:47:17;;;;;;;14.65;3.38;;;4.30;99.90;;;4.79;100.00;101046.28;5073655;28;20033;-76
2021/12/12 02:52:31;;;;;;;11.25;3.08;;;4.40;99.90;;;4.85;100.00;101048.94;5073348;28;20107;-76
2021/12/12 02:55:20;;;;;;;11.52;3.60;;;4.40;99.90;;;4.84;100.00;101050.91;5072305;28;20033;-76
2021/12/12 02:57:56;;;;;;;12.00;3.55;;;4.40;99.90;;;4.91;100.00;101056.00;5073538;28;20135;-76
2021/12/12 03:00:31;;;;;;;8.02;3.00;;;4.40;99.90;;;4.98;100.00;101059.16;5074140;28;20414;-77
2021/12/12 03:03:00;;;;;;;8.75;3.15;;;4.40;99.90;;;4.94;100.00;101049.84;5072943;28;20029;-76
2021/12/12 03:05:41;;;;;;;7.30;2.65;;;4.50;99.90;;;4.98;100.00;101048.06;5072888;28;20130;-76
2021/12/12 03:08:08;;;;;;;10.90;3.28;;;4.50;99.90;;;4.95;100.00;101052.28;5073679;28;20051;-76
2021/12/12 03:10:45;;;;;;;15.20;3.60;;;4.50;99.90;;;5.00;100.00;101048.59;5073480;28;20035;-77
2021/12/12 03:13:12;;;;;;;14.07;3.47;;;4.50;99.90;;;5.05;100.00;101046.53;5073111;28;20025;-77
2021/12/12 03:15:43;;;;;;;8.40;3.25;;;4.50;99.90;;;5.05;100.00;101048.47;5073538;28;20044;-76
2021/12/12 03:18:23;;;;;;;10.55;3.28;;;4.60;99.90;;;5.01;100.00;101051.03;5073086;28;20050;-76
2021/12/12 03:21:00;;;;;;;6.00;3.40;;;4.50;99.90;;;5.03;100.00;101057.09;5088754;28;20032;-77
2021/12/12 03:23:34;;;;;;;6.90;3.13;;;4.60;99.90;;;5.11;100.00;101058.28;5053043;28;20468;-77
2021/12/12 03:26:10;;;;;;;8.88;3.20;;;4.60;99.90;;;5.05;100.00;101060.38;5051167;28;20029;-76
2021/12/12 03:28:42;;;;;;;;;;;4.60;99.90;;;5.13;100.00;101050.53;5076586;23;20073;-77
2021/12/12 03:31:17;;;;;;;11.18;2.83;;;4.60;99.90;;;5.20;100.00;101048.94;5056039;28;19939;-76
2021/12/12 03:33:45;;;;;;;9.77;2.85;;;4.60;99.90;;;5.10;100.00;101053.91;5038306;28;20025;-77
2021/12/12 03:36:15;;;;;;;9.82;3.67;;;4.60;99.90;;;5.07;100.00;101055.31;5056502;28;20033;-78
2021/12/12 03:38:56;;;;;;;9.10;3.60;;;4.60;99.90;;;5.05;100.00;101056.78;5056118;28;20033;-77
2021/12/12 03:41:31;;;;;;;13.32;3.58;;;4.60;99.90;;;5.03;100.00;101053.50;5038917;28;20055;-78
2021/12/12 03:44:11;;;;;;;7.95;2.85;;;4.60;99.90;;;5.05;100.00;101056.78;5055965;28;20021;-77
2021/12/12 03:46:43;;;;;;;10.20;2.72;;;4.60;99.90;;;5.10;100.00;101053.91;5054834;28;20461;-76
2021/12/12 03:49:16;;;;;;;8.05;3.38;;;4.60;99.90;;;5.20;100.00;101051.72;5055902;28;20225;-77
2021/12/12 03:51:46;;;;;;;11.70;3.88;;;4.60;99.90;;;5.19;100.00;101049.25;5038226;28;20083;-77
2021/12/12 03:54:20;;;;;;;8.82;3.17;;;4.70;99.90;;;5.21;100.00;101047.00;5038049;28;20139;-76
2021/12/12 03:56:47;;;;;;;11.48;2.63;;;4.70;99.90;;;5.25;100.00;101042.47;5038295;28;20025;-75
2021/12/12 03:59:15;;;;;;;10.50;3.78;;;4.70;99.90;;;5.28;100.00;101045.44;5039264;28;20033;-77
2021/12/12 04:01:50;;;;;;;9.88;2.92;;;4.70;99.90;;;5.22;100.00;101041.16;5038701;28;20101;-77
2021/12/12 04:04:37;;;;;;;11.48;2.78;;;4.70;99.90;;;5.24;100.00;101036.13;5055949;28;20108;-78
2021/12/12 04:07:17;;;;;;;13.50;2.83;;;4.70;99.90;;;5.29;100.00;101040.72;5057146;28;20028;-79
2021/12/12 04:09:44;;;;;;;11.60;2.85;;;4.70;99.90;;;5.31;100.00;101044.81;5057486;28;20044;-77
2021/12/12 04:12:17;;;;;;;12.25;2.78;;;4.80;99.90;;;5.37;100.00;101037.19;5057687;28;20029;-82
2021/12/12 04:14:46;;;;;;;11.05;3.30;;;4.80;99.90;;;5.38;100.00;101049.91;5044564;28;20032;-82
2021/12/12 04:17:19;;;;;;;9.43;2.80;;;4.80;99.90;;;5.30;100.00;101039.56;5061009;28;20027;-79
2021/12/12 04:19:52;;;;;;;12.27;2.53;;;4.80;99.90;;;5.34;100.00;101029.50;5062038;28;20016;-78
2021/12/12 04:22:19;;;;;;;8.85;3.08;;;4.80;99.90;;;5.37;100.00;101028.06;5039690;28;20036;-77
2021/12/12 04:24:54;;;;;;;15.10;3.22;;;4.90;99.90;;;5.42;100.00;101034.31;5056419;28;20039;-77
2021/12/12 04:27:23;;;;;;;8.00;2.83;;;4.90;99.90;;;5.32;100.00;101029.84;5058267;28;20440;-82
2021/12/12 04:29:56;;;;;;;9.55;2.85;;;4.90;99.90;;;5.30;100.00;101025.72;5043494;28;20033;-79
2021/12/12 04:32:33;;;;;;;9.13;3.00;;;4.90;99.90;;;5.38;100.00;101033.28;5060755;28;20044;-79
2021/12/12 04:35:25;;;;;;;10.75;2.85;;;4.90;99.90;;;5.44;100.00;101036.75;5060556;28;20029;-80
2021/12/12 04:37:58;;;;;;;10.80;3.08;;;4.90;99.90;;;5.44;100.00;101042.28;5040110;28;20029;-78
2021/12/12 04:40:33;;;;;;;13.85;3.03;;;4.90;99.90;;;5.48;100.00;101041.34;5064936;28;20051;-77
2021/12/12 04:43:00;;;;;;;7.15;3.78;;;4.90;99.90;;;5.45;100.00;101046.72;5074409;28;20033;-77
2021/12/12 04:45:58;;;;;;;11.43;3.17;;;4.90;99.90;;;5.41;100.00;101042.91;5063710;28;20053;-77
2021/12/12 04:51:52;;;;;;;8.15;3.10;;;4.90;99.90;;;5.39;100.00;101047.97;5057014;28;20059;-78
2021/12/12 04:54:49;;;;;;;17.00;4.10;;;4.90;99.90;;;5.39;100.00;101045.19;5055062;28;20422;-80
2021/12/12 04:58:02;;;;;;;6.82;3.20;;;4.90;99.90;;;5.28;100.00;101031.59;5055959;28;20496;-77
2021/12/12 05:00:48;;;;;;;10.00;3.13;;;4.90;99.90;;;5.25;100.00;101023.91;5055566;28;20029;-76
2021/12/12 05:03:33;;;;;;;11.43;2.95;;;4.80;99.90;;;5.28;100.00;101028.00;5056759;28;20445;-76
2021/12/12 05:06:43;;;;;;;8.80;2.63;;;4.80;99.90;;;5.27;100.00;101032.72;5056781;28;20025;-75
2021/12/12 05:09:38;;;;;;;9.57;3.83;;;4.80;99.90;;;5.21;100.00;101033.97;5000999;28;20037;-76
2021/12/12 05:12:40;;;;;;;14.82;4.15;;;4.80;99.90;;;5.27;100.00;101027.19;5039069;28;20037;-79
2021/12/12 05:15:42;;;;;;;10.80;3.65;;;4.80;99.90;;;5.22;100.00;101029.25;5039138;28;20186;-76
2021/12/12 05:18:27;;;;;;;10.93;3.42;;;4.80;99.90;;;5.21;100.00;101022.91;5037696;28;20056;-77
2021/12/12 05:21:11;;;;;;;8.75;2.88;;;4.80;99.90;;;5.27;100.00;101023.56;5039054;28;20041;-77
2021/12/12 05:23:49;;;;;;;12.82;3.58;;;4.90;99.90;;;5.28;100.00;101030.75;5037924;28;20088;-76
2021/12/12 05:26:31;;;;;;;10.18;3.80;;;4.90;99.90;;;5.27;100.00;101021.63;5037471;28;20076;-78
2021/12/12 05:29:12;;;;;;;11.20;3.60;;;4.90;99.90;;;5.43;100.00;101018.47;5020385;28;20037;-78
2021/12/12 05:31:39;;;;;;;14.27;3.50;;;4.90;99.90;;;5.40;100.00;101019.13;5020042;28;20037;-77
2021/12/12 05:34:09;;;;;;;14.23;3.80;;;5.00;99.90;;;5.40;100.00;101019.13;5037290;28;20021;-79
2021/12/12 05:36:36;;;;;;;15.73;3.83;;;5.00;99.90;;;5.33;100.00;101014.84;5036021;28;20028;-78
2021/12/12 05:39:05;;;;;;;11.35;3.47;;;5.00;99.90;;;5.43;100.00;101016.53;5035683;28;20026;-78
2021/12/12 05:41:33;;;;;;;11.48;3.83;;;5.00;99.90;;;5.45;100.00;101007.94;5027785;28;20114;-79
2021/12/12 05:44:02;;;;;;;9.73;3.90;;;5.00;99.90;;;5.46;100.00;101018.69;5037154;28;20056;-78
2021/12/12 05:46:28;;;;;;;9.30;3.03;;;5.00;99.90;;;5.36;100.00;101007.88;5037034;28;20049;-77
2021/12/12 05:48:55;;;;;;;11.95;3.08;;;5.00;99.90;;;5.28;100.00;101003.91;5038431;28;20033;-77
2021/12/12 05:51:23;;;;;;;9.90;3.72;;;4.90;99.90;;;5.40;100.00;101008.84;5039656;28;20405;-79
2021/12/12 05:53:53;;;;;;;13.30;4.03;;;4.90;99.90;;;5.33;100.00;101009.28;5038302;28;20032;-76
2021/12/12 05:56:32;;;;;;;17.60;4.30;;;4.90;99.90;;;5.32;100.00;100998.53;5037346;28;20083;-79
2021/12/12 05:59:08;;;;;;;13.77;3.97;;;4.90;99.90;;;5.38;100.00;101008.38;5021968;28;20060;-77
2021/12/12 06:01:36;;;;;;;13.73;4.10;;;4.90;99.90;;;5.25;100.00;101001.75;5022866;28;20032;-78
2021/12/12 06:04:03;;;;;;;9.18;3.40;;;4.90;99.90;;;5.27;100.00;100998.66;5040006;28;20072;-79
2021/12/12 06:06:39;;;;;;;13.48;4.43;;;4.90;99.90;;;5.29;100.00;101007.50;5042439;28;20033;-78
2021/12/12 06:09:11;;;;;;;13.60;3.42;;;4.90;99.90;;;5.26;100.00;100997.88;5039177;28;20301;-78
2021/12/12 06:11:46;;;;;;;15.02;4.28;;;4.90;99.90;;;5.19;100.00;100991.13;5039601;28;20361;-80
2021/12/12 06:14:16;;;;;;;10.90;3.88;;;4.80;99.90;;;5.14;100.00;100985.69;5039374;28;20029;-79
2021/12/12 06:16:45;;;;;;;13.30;4.53;;;4.80;99.90;;;5.14;100.00;100982.91;5021636;28;20124;-79
2021/12/12 06:19:23;;;;;;;13.00;4.30;;;4.80;99.90;;;5.20;100.00;100982.47;5020940;28;20362;-80
2021/12/12 06:21:55;;;;;;;11.23;4.88;;;4.80;99.90;;;5.21;100.00;100983.31;5046230;28;20041;-78
2021/12/12 06:24:25;;;;;;;12.95;4.25;;;4.80;99.90;;;5.21;100.00;100980.53;5040785;28;20055;-78
2021/12/12 06:27:01;;;;;;;11.20;3.95;;;4.80;99.90;;;5.15;100.00;100974.31;5058425;28;20059;-78
2021/12/12 06:29:27;;;;;;;11.15;4.13;;;4.80;99.90;;;5.22;100.00;100971.09;5058027;28;20059;-78
2021/12/12 06:31:57;;;;;;;14.45;4.40;;;4.80;99.90;;;5.26;100.00;100984.00;5058508;28;20032;-78
2021/12/12 06:34:26;;;;;;;13.93;4.53;;;4.80;99.90;;;5.30;100.00;100987.78;5059084;28;20408;-79
2021/12/12 06:36:56;;;;;;;10.80;3.92;;;4.90;99.90;;;5.32;100.00;100991.06;5058642;28;20036;-78
2021/12/12 06:39:23;;;;;;;10.90;3.90;;;4.90;99.90;;;5.41;100.00;100990.28;5043900;28;20020;-80
2021/12/12 06:41:54;;;;;;;8.65;3.97;;;4.90;99.90;;;5.32;100.00;100985.53;5063735;28;20059;-80
2021/12/12 06:44:21;;;;;;;9.40;3.85;;;5.00;99.90;;;5.40;100.00;100988.63;5062768;28;20033;-82
2021/12/12 06:46:56;;;;;;;9.38;3.30;;;5.00;99.90;;;5.52;100.00;100995.25;5043862;28;20029;-78
2021/12/12 06:49:25;;;;;;;14.18;4.25;;;5.00;99.90;;;5.56;100.00;100996.25;5061297;28;20079;-79
2021/12/12 06:52:00;;;;;;;10.77;4.18;;;5.00;99.90;;;5.51;100.00;100995.56;5060259;28;20029;-80
2021/12/12 06:54:30;;;;;;;16.52;3.60;;;5.00;99.90;;;5.45;100.00;100992.13;5041429;28;20480;-83
2021/12/12 06:57:05;;;;;;;10.77;4.15;;;5.10;99.90;;;5.45;100.00;100994.06;5040495;28;20061;-80
2021/12/12 06:59:36;;;;;;;9.02;4.45;;;5.10;99.90;;;5.41;100.00;100987.53;5039190;28;20029;-80
2021/12/12 07:02:09;;;;;;;7.20;3.35;;;5.10;99.90;;;5.36;100.00;100982.13;5040127;28;20060;-81
2021/12/12 07:04:41;;;;;;;8.73;3.03;;;5.00;99.90;;;5.45;100.00;100994.06;5057016;28;20064;-77
2021/12/12 07:07:15;;;;;;;7.32;3.70;;;5.00;99.90;;;5.47;100.00;100983.47;5038098;28;20044;-76
2021/12/12 07:09:47;;;;;;;7.95;2.92;;;5.00;99.90;;;5.41;100.00;100988.34;5038791;28;20029;-77
2021/12/12 07:12:21;;;;;;;9.40;3.83;;;5.00;99.90;;;5.41;100.00;100987.53;5058026;28;20377;-78
2021/12/12 07:14:53;;;;;;;6.75;3.20;;;5.00;99.90;;;5.51;100.00;100973.41;5056326;28;20025;-77
2021/12/12 07:17:24;;;;;;;10.52;3.50;;;5.00;99.90;;;5.50;100.00;100980.91;5039182;28;20067;-79
2021/12/12 07:19:51;;;;;;;7.88;3.35;;;5.10;99.90;;;5.51;100.00;100977.00;5056650;28;20472;-77
2021/12/12 07:22:18;;;;;;;7.50;3.35;;;5.00;99.90;;;5.51;100.00;100973.41;5044040;28;20036;-80
2021/12/12 07:24:46;;;;;;;12.57;3.92;;;5.00;99.90;;;5.53;100.00;100969.19;5037229;28;20026;-78
2021/12/12 07:27:16;;;;;;;7.20;3.40;;;5.10;99.90;;;5.61;100.00;100971.22;5037544;28;20080;-77
2021/12/12 07:29:44;;;;;;;9.27;3.25;;;5.10;99.90;;;5.58;100.00;100965.47;5037538;28;20033;-78
2021/12/12 07:32:14;;;;;;;7.63;3.22;;;5.10;99.90;;;5.65;100.00;100963.88;5037419;28;20033;-79
2021/12/12 07:34:40;;;;;;;6.38;2.95;;;5.20;99.90;;;5.58;100.00;100965.47;5035602;28;20112;-79
2021/12/12 07:37:09;;;;;;;4.53;2.50;;;5.20;99.90;;;5.63;100.00;100968.94;5035779;28;20060;-78
2021/12/12 07:39:42;;;;;;;7.47;3.92;;;5.20;99.90;;;5.63;100.00;100974.47;5036982;28;20036;-80
2021/12/12 07:42:11;;;;;;;5.50;2.90;;;5.20;99.90;;;5.71;100.00;100972.88;5036234;28;20492;-79
2021/12/12 07:44:40;;;;;;;6.88;3.00;;;5.20;99.90;;;5.68;100.00;100979.88;5018543;28;20033;-80
2021/12/12 07:47:11;;;;;;;5.10;2.83;;;5.30;99.90;;;5.79;100.00;100974.88;5019406;28;20041;-80
2021/12/12 07:49:48;;;;;;;5.40;2.70;;;5.30;99.90;;;5.85;100.00;100976.38;5036796;28;20037;-82
2021/12/12 07:52:27;;;;;;;5.57;2.97;;;5.30;99.90;;;5.82;100.00;100988.91;5023484;28;20025;-80
2021/12/12 07:54:56;;;;;;;3.38;2.10;;;5.40;99.90;;;5.89;100.00;100988.50;5022469;28;20064;-80
2021/12/12 07:57:27;;;;;;;4.70;2.13;;;5.40;99.90;;;5.92;100.00;100984.25;5038633;28;20070;-78
2021/12/12 07:59:59;;;;;;;3.03;2.13;;;5.40;99.90;;;5.90;100.00;100981.00;5036078;28;20337;-78
2021/12/12 08:02:27;;;;;;;5.93;3.05;;;5.50;99.90;;;5.96;100.00;100986.09;5019253;28;20515;-78
2021/12/12 08:04:56;;;;;;;2.65;1.83;;;5.50;99.90;;;6.01;100.00;100997.03;5036585;28;20037;-78
2021/12/12 08:07:24;;;;;;;4.70;2.20;;;5.50;99.90;;;6.08;100.00;101007.66;5037869;28;20100;-79
2021/12/12 08:09:53;;;;;;;4.95;2.05;;;5.50;99.90;;;6.16;100.00;101015.22;5037885;28;20021;-79
2021/12/12 08:12:28;;;;;;;4.35;2.40;;;5.50;99.90;;;6.18;100.00;101027.63;5037725;28;20056;-77
2021/12/12 08:15:03;;;;;;;3.38;1.83;;;5.60;99.90;;;6.14;100.00;101025.78;5019907;28;20025;-80
2021/12/12 08:17:29;;;;;;;2.85;2.05;;;5.70;99.90;;;6.25;100.00;101021.63;5035591;28;20056;-79
2021/12/12 08:20:02;;;;;;;3.55;1.63;;;5.70;99.90;;;6.24;100.00;101031.88;5036324;28;20039;-78
2021/12/12 08:22:34;;;;;;;3.47;1.60;;;5.80;99.90;;;6.23;100.00;101033.00;5036003;28;20041;-82
2021/12/12 08:25:11;;;;;;;2.50;1.75;;;5.80;99.90;;;6.35;100.00;101041.56;5074109;28;20120;-79
2021/12/12 08:27:38;;;;;;;3.13;1.92;;;5.80;99.90;;;6.41;100.00;101042.25;5050881;28;20025;-81
2021/12/12 08:30:08;;;;;;;2.40;1.65;;;5.80;99.90;;;6.43;100.00;101053.81;5060512;28;20021;-80
2021/12/12 08:32:36;;;;;;;2.42;1.60;;;5.90;99.90;;;6.48;100.00;101062.03;5059911;28;20048;-80
2021/12/12 08:35:05;;;;;;;2.58;1.38;;;5.90;99.90;;;6.48;100.00;101056.47;5058216;28;20032;-78
2021/12/12 08:37:32;;;;;;;4.53;1.58;;;5.90;99.90;;;6.49;100.00;101054.50;5058729;28;20025;-80
2021/12/12 08:40:05;;;;;;;3.10;1.80;;;6.00;99.90;;;6.53;100.00;101047.16;5039745;28;20033;-79
2021/12/12 08:42:38;;;;;;;4.70;1.83;;;6.00;99.90;;;6.53;100.00;101063.81;5057342;28;20300;-77
2021/12/12 08:45:10;;;;;;;3.33;1.83;;;6.00;99.90;;;6.54;100.00;101068.25;5039239;28;20029;-77
2021/12/12 08:47:39;;;;;;;2.50;1.35;;;6.00;99.90;;;6.65;100.00;101066.78;5038612;28;20426;-78
2021/12/12 08:50:12;;;;;;;2.78;1.85;;;6.10;99.90;;;6.63;100.00;101063.53;5056010;28;20039;-79
2021/12/12 08:52:42;;;;;;;5.40;1.70;;;6.10;99.90;;;6.63;100.00;101061.56;5062098;28;20040;-81
2021/12/12 08:55:20;;;;;;;2.50;1.73;;;6.10;99.90;;;6.66;100.00;101060.94;5059400;28;20213;-78
2021/12/12 09:01:04;;;;;;;3.03;1.40;;;6.10;99.90;;;6.70;100.00;101070.25;5056572;28;20035;-79
2021/12/12 09:03:58;;;;;;;2.10;1.50;;;6.10;99.90;;;6.58;100.00;101078.34;5057805;28;20092;-78
2021/12/12 09:06:36;;;;;;;1.75;1.30;;;6.10;99.90;;;6.66;100.00;101076.75;5058471;28;20025;-80
2021/12/12 09:09:33;;;;;;;3.15;1.67;;;6.10;99.90;;;6.60;100.00;101075.28;5066309;28;20029;-81
2021/12/12 09:12:11;;;;;;;3.58;1.65;;;6.20;99.90;;;6.64;100.00;101077.09;5070904;28;20268;-78
2021/12/12 09:14:58;;;;;;;3.03;1.60;;;6.10;99.90;;;6.63;100.00;101080.19;5065664;28;20037;-79
2021/12/12 09:17:39;;;;;;;3.58;1.92;;;6.10;99.90;;;6.60;100.00;101078.06;5065444;28;20120;-80
2021/12/12 09:20:47;;;;;;;2.95;1.90;;;6.10;99.90;;;6.58;100.00;101077.56;5067609;28;20053;-77
2021/12/12 09:23:32;;;;;;;4.25;2.05;;;6.10;99.90;;;6.60;100.00;101086.38;5050232;28;20026;-80
2021/12/12 09:26:16;;;;;;;2.05;1.80;;;6.10;99.90;;;6.65;100.00;101089.81;5051471;28;20052;-77
2021/12/12 09:28:55;;;;;;;3.10;2.22;;;6.10;99.90;;;6.57;100.00;101090.63;5068735;23;20037;-80
2021/12/12 09:32:08;;;;;;;4.40;2.22;;;6.10;99.90;;;6.59;100.00;101093.06;5062079;28;20090;-78
2021/12/12 09:35:08;;;;;;;7.95;2.33;;;6.10;99.90;;;6.68;100.00;101093.91;5057893;28;20041;-80
2021/12/12 09:37:57;;;;;;;3.80;2.05;;;6.10;99.90;;;6.61;100.00;101102.72;5039898;28;20055;-80
2021/12/12 09:41:08;;;;;;;2.58;1.65;;;6.10;99.90;;;6.63;100.00;101094.88;5045011;28;20128;-79
2021/12/12 09:44:20;;;;;;;2.63;1.77;;;6.20;99.90;;;6.67;100.00;101093.09;5061455;28;20029;-78
2021/12/12 09:47:24;;;;;;;3.90;1.67;;;6.20;99.90;;;6.74;100.00;101098.97;5043658;28;20058;-79
2021/12/12 09:51:15;;;;;;;2.45;1.52;;;6.20;99.90;;;6.82;100.00;101102.94;5062627;28;20045;-81
2021/12/12 09:54:27;;;;;;;1.80;1.60;;;6.30;99.90;;;6.83;100.00;101099.84;5061637;28;20029;-80
2021/12/12 09:57:59;;;;;;;3.05;2.15;;;6.30;99.90;;;6.83;100.00;101093.47;5043702;28;20040;-79
2021/12/12 10:01:01;;;;;;;9.25;2.00;;;6.30;99.90;;;6.86;100.00;101093.66;5039070;28;20044;-78
2021/12/12 10:03:55;;;;;;;4.78;1.80;;;6.30;99.90;;;6.86;100.00;101081.72;5062865;28;20025;-81
2021/12/12 10:06:45;;;;;;;2.67;1.65;;;6.30;99.90;;;6.80;100.00;101094.94;5063019;28;20094;-81
2021/12/12 10:09:28;;;;;;;2.35;1.80;;;6.30;99.90;;;6.77;100.00;101092.81;5062601;28;20043;-81
2021/12/12 10:12:16;;;;;;;3.75;1.80;;;6.20;99.90;;;6.77;100.00;101097.56;5043318;28;20049;-80
2021/12/12 10:14:57;;;;;;;4.20;2.25;;;6.30;99.90;;;6.65;100.00;101094.53;5061188;28;20085;-79
2021/12/12 10:17:37;;;;;;;4.15;2.10;;;6.20;99.90;;;6.68;100.00;101099.44;5062737;28;20029;-81
2021/12/12 10:21:08;;;;;;;3.10;2.17;;;6.20;99.90;;;6.79;100.00;101093.31;5045457;28;20036;-78
2021/12/12 10:24:04;;;;;;;4.15;2.15;;;6.20;99.90;;;6.71;100.00;101088.53;5025109;28;20041;-80
2021/12/12 10:26:48;;;;;;;3.70;2.13;;;6.30;99.90;;;6.84;100.00;101090.38;5025965;28;20057;-79
2021/12/12 10:29:29;;;;;;;4.47;2.40;;;6.30;99.90;;;6.92;100.00;101090.72;5043548;28;20461;-81
2021/12/12 10:32:18;;;;;;;4.05;2.65;;;6.30;99.90;;;6.86;100.00;101087.28;5041597;28;20424;-79
2021/12/12 10:35:07;;;;;;;7.40;3.50;;;6.30;99.90;;;6.99;100.00;101094.66;5040443;28;20493;-79
2021/12/12 10:38:08;;;;;;;5.40;3.03;;;6.40;99.90;;;6.96;100.00;101098.09;5039544;28;20036;-81
2021/12/12 10:40:53;;;;;;;6.20;3.35;;;6.40;99.90;;;6.96;100.00;101098.09;5042361;28;20374;-80
2021/12/12 10:43:35;;;;;;;4.72;3.10;;;6.40;99.90;;;7.00;100.00;101101.03;5024867;28;20671;-81
2021/12/12 10:46:28;;;;;;;7.18;3.45;;;6.40;99.90;;;7.04;100.00;101094.50;5025842;28;20034;-82
2021/12/12 10:49:29;;;;;;;5.80;3.92;;;6.50;99.90;;;7.11;100.00;101099.59;5043213;28;20044;-81
2021/12/12 10:52:19;;;;;;;6.47;3.17;;;6.50;99.90;;;7.11;100.00;101085.69;5042686;28;20038;-81
2021/12/12 10:55:32;;;;;;;8.18;3.85;;;6.60;99.90;;;7.26;100.00;101085.22;5028412;28;20060;-80
2021/12/12 10:58:14;;;;;;;5.78;3.78;;;6.60;99.90;;;7.21;100.00;101085.38;5015668;28;20396;-79
2021/12/12 11:00:57;;;;;;;5.15;3.70;;;6.70;99.90;;;7.24;100.00;101085.56;5051214;28;20032;-79
2021/12/12 11:03:42;;;;;;;6.32;4.47;;;6.70;99.90;;;7.36;100.00;101082.94;5045742;28;20036;-81
2021/12/12 11:06:27;;;;;;;7.63;4.53;;;6.80;99.90;;;7.33;100.00;101082.78;5040034;28;20101;-78
2021/12/12 11:09:12;;;;;;;6.93;5.03;;;6.80;99.90;;;7.53;100.00;101084.91;5039282;28;20033;-81
2021/12/12 11:11:54;;;;;;;6.78;5.13;;;6.90;99.90;;;7.52;100.00;101083.28;5039282;28;20030;-79
2021/12/12 11:14:28;;;;;;;10.00;5.25;;;6.90;99.90;;;7.60;100.00;101076.09;5039499;28;20028;-80
2021/12/12 11:17:21;;;;;;;9.23;4.43;;;7.00;99.90;;;7.65;100.00;101081.47;5039830;28;20029;-78
2021/12/12 11:20:21;;;;;;;8.48;5.10;;;7.00;99.90;;;7.66;100.00;101074.75;5038755;28;20022;-80
2021/12/12 11:23:03;;;;;;;8.80;5.00;;;7.00;99.90;;;7.69;100.00;101074.94;5037130;28;20056;-80
2021/12/12 11:25:44;;;;;;;9.57;5.60;;;7.10;99.90;;;7.78;100.00;101074.91;5059979;28;20487;-79
2021/12/12 11:28:40;;;;;;;10.18;5.38;;;7.10;99.90;;;7.63;100.00;101067.91;5058200;28;20107;-80
2021/12/12 11:31:16;;;;;;;9.40;5.10;;;7.10;99.90;;;7.76;100.00;101063.31;5059653;28;20040;-81